sensor_id;sensor_type;location;lat;lon;timestamp;pressure;altitude;pressure_sealevel;temperature;humidity
38466;BME280;24244;51.950;5.902;2023-03-15T00:00:41;101086.91;;;4.77;73.06
38466;BME280;24244;51.950;5.902;2023-03-15T00:03:10;101081.81;;;4.76;73.22
38466;BME280;24244;51.950;5.902;2023-03-15T00:05:40;101085.53;;;4.73;73.61
38466;BME280;24244;51.950;5.902;2023-03-15T00:08:07;101077.50;;;4.65;73.54
38466;BME280;24244;51.950;5.902;2023-03-15T00:10:34;101081.41;;;4.61;73.68
38466;BME280;24244;51.950;5.902;2023-03-15T00:13:01;101082.50;;;4.58;73.46
38466;BME280;24244;51.950;5.902;2023-03-15T00:15:28;101082.22;;;4.52;73.76
38466;BME280;24244;51.950;5.902;2023-03-15T00:17:55;101079.88;;;4.49;74.08
38466;BME280;24244;51.950;5.902;2023-03-15T00:20:23;101084.44;;;4.47;73.80
38466;BME280;24244;51.950;5.902;2023-03-15T00:22:50;101070.72;;;4.43;74.02
38466;BME280;24244;51.950;5.902;2023-03-15T00:25:17;101067.25;;;4.43;73.80
38466;BME280;24244;51.950;5.902;2023-03-15T00:27:43;101071.69;;;4.42;73.75
38466;BME280;24244;51.950;5.902;2023-03-15T00:30:11;101073.66;;;4.40;73.75
38466;BME280;24244;51.950;5.902;2023-03-15T00:32:38;101074.75;;;4.38;73.61
38466;BME280;24244;51.950;5.902;2023-03-15T00:35:09;101090.53;;;4.38;73.83
38466;BME280;24244;51.950;5.902;2023-03-15T00:37:39;101083.63;;;4.37;73.85
38466;BME280;24244;51.950;5.902;2023-03-15T00:40:07;101085.53;;;4.34;73.91
38466;BME280;24244;51.950;5.902;2023-03-15T00:42:35;101075.19;;;4.33;73.72
38466;BME280;24244;51.950;5.902;2023-03-15T00:45:01;101088.59;;;4.30;74.03
38466;BME280;24244;51.950;5.902;2023-03-15T00:47:28;101081.78;;;4.27;73.87
38466;BME280;24244;51.950;5.902;2023-03-15T00:49:55;101085.56;;;4.25;74.13
38466;BME280;24244;51.950;5.902;2023-03-15T00:52:22;101078.63;;;4.24;74.38
38466;BME280;24244;51.950;5.902;2023-03-15T00:54:54;101084.03;;;4.22;74.53
38466;BME280;24244;51.950;5.902;2023-03-15T00:57:21;101077.09;;;4.21;74.56
38466;BME280;24244;51.950;5.902;2023-03-15T00:59:48;101086.09;;;4.19;74.11
38466;BME280;24244;51.950;5.902;2023-03-15T01:02:15;101085.41;;;4.17;74.33
38466;BME280;24244;51.950;5.902;2023-03-15T01:04:41;101086.38;;;4.16;74.38
38466;BME280;24244;51.950;5.902;2023-03-15T01:07:08;101087.34;;;4.15;74.46
38466;BME280;24244;51.950;5.902;2023-03-15T01:09:35;101087.34;;;4.15;74.49
38466;BME280;24244;51.950;5.902;2023-03-15T01:12:04;101094.38;;;4.14;74.42
38466;BME280;24244;51.950;5.902;2023-03-15T01:14:30;101097.72;;;4.16;74.48
38466;BME280;24244;51.950;5.902;2023-03-15T01:17:00;101108.50;;;4.13;74.37
38466;BME280;24244;51.950;5.902;2023-03-15T01:19:27;101116.56;;;4.12;74.19
38466;BME280;24244;51.950;5.902;2023-03-15T01:21:54;101113.09;;;4.11;74.42
38466;BME280;24244;51.950;5.902;2023-03-15T01:24:22;101118.19;;;4.13;74.65
38466;BME280;24244;51.950;5.902;2023-03-15T01:26:49;101119.03;;;4.13;74.22
38466;BME280;24244;51.950;5.902;2023-03-15T01:29:17;101124.28;;;4.13;74.45
38466;BME280;24244;51.950;5.902;2023-03-15T01:31:44;101120.97;;;4.11;74.58
38466;BME280;24244;51.950;5.902;2023-03-15T01:34:11;101129.84;;;4.10;74.84
38466;BME280;24244;51.950;5.902;2023-03-15T01:36:37;101120.28;;;4.09;74.72
38466;BME280;24244;51.950;5.902;2023-03-15T01:39:04;101129.84;;;4.10;75.08
38466;BME280;24244;51.950;5.902;2023-03-15T01:41:31;101132.34;;;4.12;74.96
38466;BME280;24244;51.950;5.902;2023-03-15T01:43:58;101138.41;;;4.12;74.87
38466;BME280;24244;51.950;5.902;2023-03-15T01:46:28;101137.72;;;4.10;75.14
38466;BME280;24244;51.950;5.902;2023-03-15T01:49:04;101142.03;;;4.11;75.29
38466;BME280;24244;51.950;5.902;2023-03-15T01:51:35;101148.25;;;4.10;75.59
38466;BME280;24244;51.950;5.902;2023-03-15T01:54:06;101154.59;;;4.08;75.51
38466;BME280;24244;51.950;5.902;2023-03-15T01:56:36;101153.63;;;4.09;75.58
38466;BME280;24244;51.950;5.902;2023-03-15T01:59:09;101152.69;;;4.10;75.39
38466;BME280;24244;51.950;5.902;2023-03-15T02:01:40;101147.41;;;4.10;75.70
38466;BME280;24244;51.950;5.902;2023-03-15T02:04:14;101151.84;;;4.09;75.60
38466;BME280;24244;51.950;5.902;2023-03-15T02:06:43;101156.16;;;4.10;75.35
38466;BME280;24244;51.950;5.902;2023-03-15T02:09:14;101158.66;;;4.12;75.56
38466;BME280;24244;51.950;5.902;2023-03-15T02:11:44;101154.19;;;4.12;75.51
38466;BME280;24244;51.950;5.902;2023-03-15T02:14:12;101155.03;;;4.13;75.63
38466;BME280;24244;51.950;5.902;2023-03-15T02:16:41;101162.78;;;4.14;75.54
38466;BME280;24244;51.950;5.902;2023-03-15T02:19:17;101159.31;;;4.14;75.24
38466;BME280;24244;51.950;5.902;2023-03-15T02:21:53;101153.22;;;4.13;75.45
38466;BME280;24244;51.950;5.902;2023-03-15T02:24:28;101157.81;;;4.11;75.12
38466;BME280;24244;51.950;5.902;2023-03-15T02:26:59;101160.56;;;4.10;75.25
38466;BME280;24244;51.950;5.902;2023-03-15T02:29:28;101161.41;;;4.10;75.87
38466;BME280;24244;51.950;5.902;2023-03-15T02:31:57;101156.81;;;4.12;75.63
38466;BME280;24244;51.950;5.902;2023-03-15T02:34:24;101170.81;;;4.13;75.38
38466;BME280;24244;51.950;5.902;2023-03-15T02:36:51;101164.59;;;4.14;75.10
38466;BME280;24244;51.950;5.902;2023-03-15T02:39:20;101175.94;;;4.14;75.61
38466;BME280;24244;51.950;5.902;2023-03-15T02:41:51;101184.66;;;4.15;75.40
38466;BME280;24244;51.950;5.902;2023-03-15T02:44:22;101180.25;;;4.15;75.24
38466;BME280;24244;51.950;5.902;2023-03-15T02:46:58;101186.47;;;4.14;75.31
38466;BME280;24244;51.950;5.902;2023-03-15T02:49:30;101181.19;;;4.14;75.56
38466;BME280;24244;51.950;5.902;2023-03-15T02:51:58;101186.59;;;4.13;75.72
38466;BME280;24244;51.950;5.902;2023-03-15T02:54:24;101191.00;;;4.12;75.48
38466;BME280;24244;51.950;5.902;2023-03-15T02:56:51;101192.00;;;4.11;75.32
38466;BME280;24244;51.950;5.902;2023-03-15T02:59:18;101196.44;;;4.11;75.67
38466;BME280;24244;51.950;5.902;2023-03-15T03:01:45;101190.47;;;4.09;75.65
38466;BME280;24244;51.950;5.902;2023-03-15T03:04:13;101205.41;;;4.08;75.77
38466;BME280;24244;51.950;5.902;2023-03-15T03:06:40;101209.84;;;4.08;75.87
38466;BME280;24244;51.950;5.902;2023-03-15T03:09:10;101217.03;;;4.06;75.92
38466;BME280;24244;51.950;5.902;2023-03-15T03:11:37;101224.91;;;4.06;76.04
38466;BME280;24244;51.950;5.902;2023-03-15T03:14:04;101226.88;;;4.04;75.67
38466;BME280;24244;51.950;5.902;2023-03-15T03:16:31;101236.56;;;4.03;75.81
38466;BME280;24244;51.950;5.902;2023-03-15T03:18:59;101230.47;;;4.03;75.89
38466;BME280;24244;51.950;5.902;2023-03-15T03:21:31;101237.63;;;4.01;75.83
38466;BME280;24244;51.950;5.902;2023-03-15T03:23:57;101250.09;;;3.99;76.04
38466;BME280;24244;51.950;5.902;2023-03-15T03:26:24;101254.78;;;3.95;75.83
38466;BME280;24244;51.950;5.902;2023-03-15T03:28:53;101251.56;;;3.91;75.94
38466;BME280;24244;51.950;5.902;2023-03-15T03:31:23;101263.06;;;3.90;75.95
38466;BME280;24244;51.950;5.902;2023-03-15T03:33:50;101265.13;;;3.87;76.02
38466;BME280;24244;51.950;5.902;2023-03-15T03:36:18;101263.72;;;3.83;76.03
38466;BME280;24244;51.950;5.902;2023-03-15T03:38:46;101269.94;;;3.82;76.02
38466;BME280;24244;51.950;5.902;2023-03-15T03:41:13;101266.34;;;3.83;76.17
38466;BME280;24244;51.950;5.902;2023-03-15T03:43:41;101277.13;;;3.80;76.04
38466;BME280;24244;51.950;5.902;2023-03-15T03:46:08;101282.63;;;3.77;75.89
38466;BME280;24244;51.950;5.902;2023-03-15T03:48:35;101283.84;;;3.73;75.95
38466;BME280;24244;51.950;5.902;2023-03-15T03:51:02;101287.72;;;3.69;76.24
38466;BME280;24244;51.950;5.902;2023-03-15T03:53:29;101289.63;;;3.67;76.11
38466;BME280;24244;51.950;5.902;2023-03-15T03:55:57;101308.16;;;3.65;76.03
38466;BME280;24244;51.950;5.902;2023-03-15T03:58:24;101311.19;;;3.61;76.29
38466;BME280;24244;51.950;5.902;2023-03-15T04:00:51;101321.22;;;3.55;76.43
38466;BME280;24244;51.950;5.902;2023-03-15T04:03:21;101311.94;;;3.51;76.57
38466;BME280;24244;51.950;5.902;2023-03-15T04:05:53;101318.41;;;3.47;76.49
38466;BME280;24244;51.950;5.902;2023-03-15T04:08:39;101323.91;;;3.44;76.45
38466;BME280;24244;51.950;5.902;2023-03-15T04:11:08;101328.72;;;3.39;76.34
38466;BME280;24244;51.950;5.902;2023-03-15T04:13:34;101337.69;;;3.37;76.11
38466;BME280;24244;51.950;5.902;2023-03-15T04:16:01;101331.88;;;3.33;76.38
38466;BME280;24244;51.950;5.902;2023-03-15T04:18:29;101344.16;;;3.33;76.34
38466;BME280;24244;51.950;5.902;2023-03-15T04:20:56;101340.69;;;3.32;76.80
38466;BME280;24244;51.950;5.902;2023-03-15T04:23:23;101339.03;;;3.31;76.81
38466;BME280;24244;51.950;5.902;2023-03-15T04:25:51;101338.31;;;3.29;76.52
38466;BME280;24244;51.950;5.902;2023-03-15T04:28:22;101340.94;;;3.29;76.57
38466;BME280;24244;51.950;5.902;2023-03-15T04:30:49;101342.03;;;3.27;76.70
38466;BME280;24244;51.950;5.902;2023-03-15T04:33:16;101349.91;;;3.27;76.50
38466;BME280;24244;51.950;5.902;2023-03-15T04:35:43;101358.88;;;3.24;76.40
38466;BME280;24244;51.950;5.902;2023-03-15T04:38:10;101358.16;;;3.22;76.76
38466;BME280;24244;51.950;5.902;2023-03-15T04:40:36;101367.00;;;3.21;76.78
38466;BME280;24244;51.950;5.902;2023-03-15T04:43:04;101363.66;;;3.19;76.33
38466;BME280;24244;51.950;5.902;2023-03-15T04:45:32;101372.50;;;3.18;76.59
38466;BME280;24244;51.950;5.902;2023-03-15T04:48:00;101377.03;;;3.16;76.97
38466;BME280;24244;51.950;5.902;2023-03-15T04:50:28;101380.63;;;3.15;76.50
38466;BME280;24244;51.950;5.902;2023-03-15T04:52:56;101386.81;;;3.14;76.70
38466;BME280;24244;51.950;5.902;2023-03-15T04:55:23;101389.59;;;3.12;76.92
38466;BME280;24244;51.950;5.902;2023-03-15T04:57:49;101386.00;;;3.13;76.56
38466;BME280;24244;51.950;5.902;2023-03-15T05:00:17;101395.66;;;3.13;76.64
38466;BME280;24244;51.950;5.902;2023-03-15T05:02:45;101397.59;;;3.11;76.90
38466;BME280;24244;51.950;5.902;2023-03-15T05:05:17;101401.06;;;3.11;77.10
38466;BME280;24244;51.950;5.902;2023-03-15T05:07:44;101399.28;;;3.12;76.86
38466;BME280;24244;51.950;5.902;2023-03-15T05:10:11;101407.16;;;3.12;77.00
38466;BME280;24244;51.950;5.902;2023-03-15T05:12:38;101406.16;;;3.13;77.04
38466;BME280;24244;51.950;5.902;2023-03-15T05:15:06;101410.72;;;3.11;76.62
38466;BME280;24244;51.950;5.902;2023-03-15T05:17:33;101418.72;;;3.09;77.23
38466;BME280;24244;51.950;5.902;2023-03-15T05:20:01;101418.84;;;3.08;77.04
38466;BME280;24244;51.950;5.902;2023-03-15T05:22:36;101425.03;;;3.07;76.70
38466;BME280;24244;51.950;5.902;2023-03-15T05:25:04;101441.06;;;3.04;77.10
38466;BME280;24244;51.950;5.902;2023-03-15T05:27:31;101441.28;;;3.01;76.96
38466;BME280;24244;51.950;5.902;2023-03-15T05:29:59;101443.34;;;2.97;76.84
38466;BME280;24244;51.950;5.902;2023-03-15T05:32:29;101449.53;;;2.96;77.07
38466;BME280;24244;51.950;5.902;2023-03-15T05:35:01;101448.81;;;2.94;77.21
38466;BME280;24244;51.950;5.902;2023-03-15T05:37:29;101455.84;;;2.94;76.96
38466;BME280;24244;51.950;5.902;2023-03-15T05:39:58;101456.94;;;2.91;77.11
38466;BME280;24244;51.950;5.902;2023-03-15T05:42:25;101457.16;;;2.88;76.92
38466;BME280;24244;51.950;5.902;2023-03-15T05:44:52;101464.44;;;2.85;77.22
38466;BME280;24244;51.950;5.902;2023-03-15T05:47:19;101461.00;;;2.84;77.16
38466;BME280;24244;51.950;5.902;2023-03-15T05:49:46;101460.28;;;2.82;77.21
38466;BME280;24244;51.950;5.902;2023-03-15T05:52:18;101456.34;;;2.77;77.34
38466;BME280;24244;51.950;5.902;2023-03-15T05:54:45;101459.91;;;2.75;77.18
38466;BME280;24244;51.950;5.902;2023-03-15T05:57:12;101461.81;;;2.73;77.50
38466;BME280;24244;51.950;5.902;2023-03-15T05:59:39;101457.78;;;2.69;77.07
38466;BME280;24244;51.950;5.902;2023-03-15T06:02:06;101473.63;;;2.68;77.21
38466;BME280;24244;51.950;5.902;2023-03-15T06:04:33;101474.59;;;2.67;77.10
38466;BME280;24244;51.950;5.902;2023-03-15T06:07:00;101479.00;;;2.66;77.30
38466;BME280;24244;51.950;5.902;2023-03-15T06:09:28;101486.03;;;2.66;77.14
38466;BME280;24244;51.950;5.902;2023-03-15T06:11:55;101486.03;;;2.66;77.08
38466;BME280;24244;51.950;5.902;2023-03-15T06:14:22;101491.38;;;2.64;76.96
38466;BME280;24244;51.950;5.902;2023-03-15T06:16:48;101490.56;;;2.64;76.87
38466;BME280;24244;51.950;5.902;2023-03-15T06:19:15;101494.25;;;2.61;77.43
38466;BME280;24244;51.950;5.902;2023-03-15T06:21:42;101496.78;;;2.63;77.27
38466;BME280;24244;51.950;5.902;2023-03-15T06:24:09;101494.00;;;2.64;77.42
38466;BME280;24244;51.950;5.902;2023-03-15T06:26:38;101497.84;;;2.60;77.32
38466;BME280;24244;51.950;5.902;2023-03-15T06:29:05;101525.03;;;2.59;77.45
38466;BME280;24244;51.950;5.902;2023-03-15T06:31:32;101527.66;;;2.59;77.53
38466;BME280;24244;51.950;5.902;2023-03-15T06:33:58;101538.16;;;2.59;77.61
38466;BME280;24244;51.950;5.902;2023-03-15T06:36:25;101531.97;;;2.60;77.96
38466;BME280;24244;51.950;5.902;2023-03-15T06:38:52;101539.56;;;2.63;77.59
38466;BME280;24244;51.950;5.902;2023-03-15T06:41:20;101541.97;;;2.66;77.46
38466;BME280;24244;51.950;5.902;2023-03-15T06:43:48;101530.28;;;2.70;77.25
38466;BME280;24244;51.950;5.902;2023-03-15T06:46:15;101531.13;;;2.71;77.16
38466;BME280;24244;51.950;5.902;2023-03-15T06:48:42;101541.41;;;2.74;77.65
38466;BME280;24244;51.950;5.902;2023-03-15T06:51:09;101551.78;;;2.75;77.22
38466;BME280;24244;51.950;5.902;2023-03-15T06:53:36;101560.38;;;2.78;76.99
38466;BME280;24244;51.950;5.902;2023-03-15T06:56:04;101561.19;;;2.78;77.42
38466;BME280;24244;51.950;5.902;2023-03-15T06:58:30;101571.50;;;2.81;77.58
38466;BME280;24244;51.950;5.902;2023-03-15T07:00:59;101563.41;;;2.84;77.41
38466;BME280;24244;51.950;5.902;2023-03-15T07:03:25;101574.47;;;2.88;77.31
38466;BME280;24244;51.950;5.902;2023-03-15T07:05:52;101575.31;;;2.88;77.63
38466;BME280;24244;51.950;5.902;2023-03-15T07:08:21;101584.88;;;2.89;77.33
38466;BME280;24244;51.950;5.902;2023-03-15T07:10:48;101586.41;;;2.92;77.71
38466;BME280;24244;51.950;5.902;2023-03-15T07:13:16;101591.66;;;2.92;77.46
38466;BME280;24244;51.950;5.902;2023-03-15T07:15:43;101598.59;;;2.93;77.39
38466;BME280;24244;51.950;5.902;2023-03-15T07:18:11;101601.09;;;2.94;77.69
38466;BME280;24244;51.950;5.902;2023-03-15T07:20:38;101600.16;;;2.95;77.73
38466;BME280;24244;51.950;5.902;2023-03-15T07:23:05;101599.78;;;3.00;77.46
38466;BME280;24244;51.950;5.902;2023-03-15T07:25:32;101607.56;;;3.01;77.94
38466;BME280;24244;51.950;5.902;2023-03-15T07:28:17;101617.00;;;3.04;77.68
38466;BME280;24244;51.950;5.902;2023-03-15T07:30:51;101624.63;;;3.07;77.69
38466;BME280;24244;51.950;5.902;2023-03-15T07:33:19;101622.75;;;3.09;77.82
38466;BME280;24244;51.950;5.902;2023-03-15T07:35:50;101625.16;;;3.12;77.64
38466;BME280;24244;51.950;5.902;2023-03-15T07:38:17;101626.78;;;3.13;77.66
38466;BME280;24244;51.950;5.902;2023-03-15T07:40:44;101631.09;;;3.14;77.85
38466;BME280;24244;51.950;5.902;2023-03-15T07:43:11;101631.81;;;3.16;77.87
38466;BME280;24244;51.950;5.902;2023-03-15T07:45:38;101636.03;;;3.19;77.70
38466;BME280;24244;51.950;5.902;2023-03-15T07:48:05;101640.19;;;3.21;77.89
38466;BME280;24244;51.950;5.902;2023-03-15T07:50:33;101646.16;;;3.23;77.97
38466;BME280;24244;51.950;5.902;2023-03-15T07:53:02;101652.25;;;3.24;77.84
38466;BME280;24244;51.950;5.902;2023-03-15T07:55:30;101651.31;;;3.25;77.78
38466;BME280;24244;51.950;5.902;2023-03-15T07:57:57;101664.19;;;3.28;77.88
38466;BME280;24244;51.950;5.902;2023-03-15T08:00:24;101660.63;;;3.29;78.08
38466;BME280;24244;51.950;5.902;2023-03-15T08:02:51;101664.81;;;3.31;77.95
38466;BME280;24244;51.950;5.902;2023-03-15T08:05:18;101676.06;;;3.33;78.09
38466;BME280;24244;51.950;5.902;2023-03-15T08:07:47;101676.66;;;3.37;77.80
38466;BME280;24244;51.950;5.902;2023-03-15T08:10:19;101681.78;;;3.38;77.76
38466;BME280;24244;51.950;5.902;2023-03-15T08:12:47;101680.72;;;3.41;78.03
38466;BME280;24244;51.950;5.902;2023-03-15T08:15:14;101688.34;;;3.44;77.92
38466;BME280;24244;51.950;5.902;2023-03-15T08:17:42;101685.63;;;3.45;77.87
38466;BME280;24244;51.950;5.902;2023-03-15T08:20:11;101694.09;;;3.49;78.15
38466;BME280;24244;51.950;5.902;2023-03-15T08:22:41;101695.66;;;3.51;77.81
38466;BME280;24244;51.950;5.902;2023-03-15T08:25:12;101696.50;;;3.52;78.21
38466;BME280;24244;51.950;5.902;2023-03-15T08:27:41;101697.09;;;3.55;78.24
38466;BME280;24244;51.950;5.902;2023-03-15T08:30:09;101702.97;;;3.59;78.10
38466;BME280;24244;51.950;5.902;2023-03-15T08:32:39;101700.91;;;3.63;78.17
38466;BME280;24244;51.950;5.902;2023-03-15T08:35:08;101704.03;;;3.68;78.32
38466;BME280;24244;51.950;5.902;2023-03-15T08:37:37;101704.50;;;3.73;78.08
38466;BME280;24244;51.950;5.902;2023-03-15T08:40:05;101710.38;;;3.76;78.17
38466;BME280;24244;51.950;5.902;2023-03-15T08:42:38;101717.06;;;3.80;78.06
38466;BME280;24244;51.950;5.902;2023-03-15T08:45:07;101724.59;;;3.85;77.98
38466;BME280;24244;51.950;5.902;2023-03-15T08:47:34;101717.31;;;3.88;77.67
38466;BME280;24244;51.950;5.902;2023-03-15T08:50:02;101718.84;;;3.91;77.84
38466;BME280;24244;51.950;5.902;2023-03-15T08:52:31;101723.66;;;3.97;77.92
38466;BME280;24244;51.950;5.902;2023-03-15T08:54:58;101727.72;;;4.01;77.84
38466;BME280;24244;51.950;5.902;2023-03-15T08:57:25;101731.75;;;4.05;77.78
38466;BME280;24244;51.950;5.902;2023-03-15T08:59:53;101734.06;;;4.10;77.94
38466;BME280;24244;51.950;5.902;2023-03-15T09:02:22;101736.31;;;4.14;77.80
38466;BME280;24244;51.950;5.902;2023-03-15T09:04:50;101737.75;;;4.18;77.84
38466;BME280;24244;51.950;5.902;2023-03-15T09:07:19;101743.59;;;4.22;77.87
38466;BME280;24244;51.950;5.902;2023-03-15T09:09:47;101742.41;;;4.26;77.57
38466;BME280;24244;51.950;5.902;2023-03-15T09:12:15;101740.38;;;4.29;77.57
38466;BME280;24244;51.950;5.902;2023-03-15T09:14:43;101747.03;;;4.33;77.60
38466;BME280;24244;51.950;5.902;2023-03-15T09:17:11;101743.22;;;4.38;77.91
38466;BME280;24244;51.950;5.902;2023-03-15T09:19:38;101749.91;;;4.42;77.67
38466;BME280;24244;51.950;5.902;2023-03-15T09:22:06;101750.53;;;4.45;77.80
38466;BME280;24244;51.950;5.902;2023-03-15T09:24:49;101757.19;;;4.49;77.76
38466;BME280;24244;51.950;5.902;2023-03-15T09:27:17;101752.53;;;4.53;77.58
38466;BME280;24244;51.950;5.902;2023-03-15T09:29:44;101752.28;;;4.56;77.46
38466;BME280;24244;51.950;5.902;2023-03-15T09:32:12;101747.50;;;4.61;77.76
38466;BME280;24244;51.950;5.902;2023-03-15T09:34:39;101747.25;;;4.64;77.36
38466;BME280;24244;51.950;5.902;2023-03-15T09:37:08;101749.53;;;4.68;77.33
38466;BME280;24244;51.950;5.902;2023-03-15T09:39:35;101747.47;;;4.72;77.25
38466;BME280;24244;51.950;5.902;2023-03-15T09:42:06;101754.97;;;4.77;77.24
38466;BME280;24244;51.950;5.902;2023-03-15T09:44:43;101755.47;;;4.82;77.38
38466;BME280;24244;51.950;5.902;2023-03-15T09:47:23;101759.38;;;4.87;77.69
38466;BME280;24244;51.950;5.902;2023-03-15T09:49:58;101751.22;;;4.90;77.60
38466;BME280;24244;51.950;5.902;2023-03-15T09:52:33;101760.44;;;4.96;77.34
38466;BME280;24244;51.950;5.902;2023-03-15T09:55:09;101759.22;;;5.00;77.39
38466;BME280;24244;51.950;5.902;2023-03-15T09:57:40;101757.19;;;5.03;77.14
38466;BME280;24244;51.950;5.902;2023-03-15T10:00:12;101756.91;;;5.06;77.17
38466;BME280;24244;51.950;5.902;2023-03-15T10:02:51;101763.63;;;5.10;77.21
38466;BME280;24244;51.950;5.902;2023-03-15T10:05:22;101767.53;;;5.16;77.29
38466;BME280;24244;51.950;5.902;2023-03-15T10:07:52;101764.53;;;5.21;77.39
38466;BME280;24244;51.950;5.902;2023-03-15T10:10:24;101761.53;;;5.25;76.99
38466;BME280;24244;51.950;5.902;2023-03-15T10:12:57;101758.50;;;5.30;77.06
38466;BME280;24244;51.950;5.902;2023-03-15T10:15:38;101767.69;;;5.35;76.90
38466;BME280;24244;51.950;5.902;2023-03-15T10:18:27;101767.16;;;5.41;76.70
38466;BME280;24244;51.950;5.902;2023-03-15T10:21:01;101767.66;;;5.46;76.49
38466;BME280;24244;51.950;5.902;2023-03-15T10:23:38;101761.13;;;5.50;76.29
38466;BME280;24244;51.950;5.902;2023-03-15T10:26:13;101770.31;;;5.56;75.98
38466;BME280;24244;51.950;5.902;2023-03-15T10:28:42;101763.84;;;5.60;76.34
38466;BME280;24244;51.950;5.902;2023-03-15T10:31:13;101765.97;;;5.66;76.05
38466;BME280;24244;51.950;5.902;2023-03-15T10:33:56;101766.53;;;5.70;76.04
38466;BME280;24244;51.950;5.902;2023-03-15T10:36:28;101768.78;;;5.74;75.89
38466;BME280;24244;51.950;5.902;2023-03-15T10:38:56;101764.78;;;5.80;75.78
38466;BME280;24244;51.950;5.902;2023-03-15T10:41:28;101763.53;;;5.84;75.83
38466;BME280;24244;51.950;5.902;2023-03-15T10:43:59;101760.56;;;5.88;75.59
38466;BME280;24244;51.950;5.902;2023-03-15T10:46:28;101764.59;;;5.93;75.57
38466;BME280;24244;51.950;5.902;2023-03-15T10:48:58;101768.38;;;6.00;75.49
38466;BME280;24244;51.950;5.902;2023-03-15T10:51:27;101771.47;;;6.05;75.22
38466;BME280;24244;51.950;5.902;2023-03-15T10:53:58;101776.34;;;6.09;75.15
38466;BME280;24244;51.950;5.902;2023-03-15T10:56:30;101779.56;;;6.13;74.85
38466;BME280;24244;51.950;5.902;2023-03-15T10:59:00;101785.28;;;6.18;74.91
38466;BME280;24244;51.950;5.902;2023-03-15T11:01:38;101788.50;;;6.21;74.71
38466;BME280;24244;51.950;5.902;2023-03-15T11:04:17;101785.44;;;6.26;74.66
38466;BME280;24244;51.950;5.902;2023-03-15T11:06:47;101798.25;;;6.31;74.47
38466;BME280;24244;51.950;5.902;2023-03-15T11:09:18;101797.84;;;6.35;74.39
38466;BME280;24244;51.950;5.902;2023-03-15T11:11:56;101805.22;;;6.41;74.21
38466;BME280;24244;51.950;5.902;2023-03-15T11:14:25;101800.53;;;6.45;74.08
38466;BME280;24244;51.950;5.902;2023-03-15T11:16:55;101791.38;;;6.49;73.96
38466;BME280;24244;51.950;5.902;2023-03-15T11:19:26;101804.19;;;6.53;73.69
38466;BME280;24244;51.950;5.902;2023-03-15T11:21:54;101807.25;;;6.58;73.56
38466;BME280;24244;51.950;5.902;2023-03-15T11:24:24;101806.84;;;6.63;73.41
38466;BME280;24244;51.950;5.902;2023-03-15T11:26:54;101815.06;;;6.69;73.04
38466;BME280;24244;51.950;5.902;2023-03-15T11:29:24;101815.50;;;6.75;72.84
38466;BME280;24244;51.950;5.902;2023-03-15T11:31:56;101809.69;;;6.81;73.27
38466;BME280;24244;51.950;5.902;2023-03-15T11:34:34;101821.50;;;6.86;72.69
38466;BME280;24244;51.950;5.902;2023-03-15T11:37:05;101818.31;;;6.92;72.31
38466;BME280;24244;51.950;5.902;2023-03-15T11:39:40;101825.56;;;7.00;72.13
38466;BME280;24244;51.950;5.902;2023-03-15T11:42:15;101820.69;;;7.05;71.97
38466;BME280;24244;51.950;5.902;2023-03-15T11:44:47;101814.84;;;7.11;71.62
38466;BME280;24244;51.950;5.902;2023-03-15T11:47:22;101812.66;;;7.16;71.50
38466;BME280;24244;51.950;5.902;2023-03-15T11:49:54;101809.44;;;7.22;71.31
38466;BME280;24244;51.950;5.902;2023-03-15T11:52:23;101814.31;;;7.27;71.00
38466;BME280;24244;51.950;5.902;2023-03-15T11:54:56;101812.91;;;7.32;70.79
38466;BME280;24244;51.950;5.902;2023-03-15T11:57:46;101807.88;;;7.39;71.00
38466;BME280;24244;51.950;5.902;2023-03-15T12:03:36;101792.72;;;7.51;70.49
38466;BME280;24244;51.950;5.902;2023-03-15T12:06:34;101793.13;;;7.56;70.13
38466;BME280;24244;51.950;5.902;2023-03-15T12:09:38;101790.88;;;7.61;70.22
38466;BME280;24244;51.950;5.902;2023-03-15T12:12:35;101793.13;;;7.65;69.82
38466;BME280;24244;51.950;5.902;2023-03-15T12:15:04;101787.53;;;7.68;69.45
38466;BME280;24244;51.950;5.902;2023-03-15T12:17:41;101786.16;;;7.74;69.63
38466;BME280;24244;51.950;5.902;2023-03-15T12:20:17;101795.47;;;7.78;69.74
38466;BME280;24244;51.950;5.902;2023-03-15T12:22:50;101790.56;;;7.83;69.38
38466;BME280;24244;51.950;5.902;2023-03-15T12:25:21;101780.25;;;7.90;69.22
38466;BME280;24244;51.950;5.902;2023-03-15T12:27:52;101792.94;;;7.96;69.10
38466;BME280;24244;51.950;5.902;2023-03-15T12:30:29;101789.84;;;8.00;68.91
38466;BME280;24244;51.950;5.902;2023-03-15T12:32:57;101792.88;;;8.05;68.79
38466;BME280;24244;51.950;5.902;2023-03-15T12:35:28;101793.97;;;8.12;68.49
38466;BME280;24244;51.950;5.902;2023-03-15T12:38:02;101792.53;;;8.18;68.35
38466;BME280;24244;51.950;5.902;2023-03-15T12:40:47;101793.94;;;8.22;68.42
38466;BME280;24244;51.950;5.902;2023-03-15T12:43:15;101788.06;;;8.28;68.10
38466;BME280;24244;51.950;5.902;2023-03-15T12:46:00;101776.22;;;8.32;68.17
38466;BME280;24244;51.950;5.902;2023-03-15T12:48:29;101789.69;;;8.39;68.24
38466;BME280;24244;51.950;5.902;2023-03-15T12:51:01;101786.63;;;8.43;67.57
38466;BME280;24244;51.950;5.902;2023-03-15T12:53:44;101790.38;;;8.50;66.57
38466;BME280;24244;51.950;5.902;2023-03-15T12:56:29;101789.75;;;8.56;67.07
38466;BME280;24244;51.950;5.902;2023-03-15T12:59:19;101791.97;;;8.61;66.78
38466;BME280;24244;51.950;5.902;2023-03-15T13:01:48;101795.88;;;8.67;66.48
38466;BME280;24244;51.950;5.902;2023-03-15T13:04:16;101787.59;;;8.70;66.19
38466;BME280;24244;51.950;5.902;2023-03-15T13:06:51;101782.84;;;8.73;66.07
38466;BME280;24244;51.950;5.902;2023-03-15T13:09:43;101795.78;;;8.76;65.02
38466;BME280;24244;51.950;5.902;2023-03-15T13:12:20;101789.22;;;8.80;65.28
38466;BME280;24244;51.950;5.902;2023-03-15T13:14:52;101787.91;;;8.84;65.54
38466;BME280;24244;51.950;5.902;2023-03-15T13:17:31;101792.75;;;8.89;64.68